DLH4DM EDDC-EDDS
Flight info
| Callsign | DLH4DM |
|---|---|
| Flight time | 0h 47m |
| Altitude | 30000 |
| Route | ABKIS4E ABKIS Z715 ANELA N869 DKB/N0406F240 Z818 GEBNO/N0400F230 T726 LBU |
| Aircraft | A320/M-SDE3FGHIRWY/LB1 |
Departure
| Time | 2026-05-08 19:49 |
|---|---|
| Airport | Dresden Airport (EDDC) |
Arrival
| Time | 2026-05-08 20:36 |
|---|---|
| Airport | Stuttgart Airport (EDDS) |
| Time | Latitude | Longitude | Altitude | Speed | Heading |
|---|---|---|---|---|---|
| 2026-05-08 19:15 | 51.12655 | 13.76475 | 749 ft | 0 kts | 221° |
| 2026-05-08 19:39 | 51.12658 | 13.76479 | 753 ft | 3 kts | 221° |
| 2026-05-08 19:40 | 51.12672 | 13.76498 | 750 ft | 4 kts | 221° |
| 2026-05-08 19:40 | 51.12692 | 13.76526 | 753 ft | 4 kts | 221° |
| 2026-05-08 19:40 | 51.12708 | 13.76548 | 750 ft | 4 kts | 229° |
| 2026-05-08 19:40 | 51.12717 | 13.76581 | 749 ft | 4 kts | 285° |
| 2026-05-08 19:41 | 51.12705 | 13.76613 | 748 ft | 4 kts | 311° |
| 2026-05-08 19:41 | 51.12698 | 13.76627 | 749 ft | 0 kts | 311° |
| 2026-05-08 19:43 | 51.12715 | 13.76596 | 748 ft | 8 kts | 311° |
| 2026-05-08 19:44 | 51.12761 | 13.76509 | 753 ft | 11 kts | 310° |
| 2026-05-08 19:44 | 51.12789 | 13.76416 | 753 ft | 8 kts | 261° |
| 2026-05-08 19:44 | 51.12758 | 13.76349 | 753 ft | 6 kts | 222° |
| 2026-05-08 19:44 | 51.12733 | 13.76313 | 754 ft | 3 kts | 222° |
| 2026-05-08 19:45 | 51.12722 | 13.76298 | 754 ft | 1 kts | 222° |
| 2026-05-08 19:45 | 51.12690 | 13.76252 | 755 ft | 14 kts | 221° |
| 2026-05-08 19:45 | 51.12619 | 13.76156 | 756 ft | 12 kts | 220° |
| 2026-05-08 19:45 | 51.12553 | 13.76065 | 759 ft | 14 kts | 221° |
| 2026-05-08 19:46 | 51.12472 | 13.75952 | 762 ft | 17 kts | 221° |
| 2026-05-08 19:46 | 51.12390 | 13.75840 | 763 ft | 14 kts | 220° |
| 2026-05-08 19:46 | 51.12401 | 13.75641 | 764 ft | 1 kts | 292° |
| 2026-05-08 19:47 | 51.12403 | 13.75634 | 764 ft | 4 kts | 292° |
| 2026-05-08 19:47 | 51.12424 | 13.75573 | 764 ft | 10 kts | 307° |
| 2026-05-08 19:48 | 51.12484 | 13.75509 | 764 ft | 12 kts | 359° |
| 2026-05-08 19:48 | 51.12555 | 13.75587 | 763 ft | 0 kts | 42° |
| 2026-05-08 19:48 | 51.12568 | 13.75606 | 763 ft | 20 kts | 41° |
| 2026-05-08 19:48 | 51.12885 | 13.76042 | 756 ft | 96 kts | 41° |
| 2026-05-08 19:49 | 51.13543 | 13.76955 | 743 ft | 152 kts | 41° |
| 2026-05-08 19:49 | 51.14432 | 13.78107 | 1049 ft | 177 kts | 37° |
| 2026-05-08 19:49 | 51.15494 | 13.79249 | 1653 ft | 186 kts | 38° |
| 2026-05-08 19:49 | 51.16480 | 13.80590 | 2356 ft | 191 kts | 43° |
| 2026-05-08 19:50 | 51.17508 | 13.82118 | 2669 ft | 213 kts | 44° |
| 2026-05-08 19:50 | 51.18661 | 13.83826 | 3054 ft | 239 kts | 43° |
| 2026-05-08 19:50 | 51.19836 | 13.85831 | 3666 ft | 255 kts | 60° |
| 2026-05-08 19:50 | 51.20267 | 13.88572 | 4525 ft | 261 kts | 89° |
| 2026-05-08 19:51 | 51.20105 | 13.91477 | 5450 ft | 265 kts | 104° |
| 2026-05-08 19:51 | 51.19210 | 13.94045 | 6297 ft | 271 kts | 135° |
| 2026-05-08 19:51 | 51.17661 | 13.95759 | 7133 ft | 275 kts | 159° |
| 2026-05-08 19:51 | 51.15778 | 13.96298 | 7955 ft | 279 kts | 184° |
| 2026-05-08 19:52 | 51.13913 | 13.95494 | 8782 ft | 281 kts | 210° |
| 2026-05-08 19:52 | 51.12440 | 13.93476 | 9631 ft | 282 kts | 234° |
| 2026-05-08 19:52 | 51.11310 | 13.90897 | 10441 ft | 287 kts | 237° |
| 2026-05-08 19:52 | 51.10137 | 13.88173 | 10754 ft | 310 kts | 237° |
| 2026-05-08 19:53 | 51.08887 | 13.85272 | 11048 ft | 331 kts | 237° |
| 2026-05-08 19:53 | 51.07561 | 13.82212 | 11683 ft | 338 kts | 237° |
| 2026-05-08 19:53 | 51.06216 | 13.79127 | 12455 ft | 342 kts | 236° |
| 2026-05-08 19:53 | 51.04850 | 13.76014 | 13238 ft | 344 kts | 236° |
| 2026-05-08 19:54 | 51.03473 | 13.72877 | 14007 ft | 347 kts | 236° |
| 2026-05-08 19:54 | 51.02089 | 13.69723 | 14685 ft | 350 kts | 236° |
| 2026-05-08 19:54 | 51.00689 | 13.66539 | 15353 ft | 353 kts | 236° |
| 2026-05-08 19:54 | 50.99277 | 13.63336 | 15951 ft | 357 kts | 236° |
| 2026-05-08 19:55 | 50.97851 | 13.60103 | 16136 ft | 358 kts | 236° |
| 2026-05-08 19:55 | 50.96426 | 13.56871 | 16186 ft | 357 kts | 236° |
| 2026-05-08 19:55 | 50.95001 | 13.53640 | 16169 ft | 357 kts | 236° |
| 2026-05-08 19:55 | 50.93578 | 13.50409 | 16263 ft | 360 kts | 236° |
| 2026-05-08 19:56 | 50.92140 | 13.47148 | 16948 ft | 362 kts | 236° |
| 2026-05-08 19:56 | 50.90690 | 13.43863 | 17612 ft | 365 kts | 236° |
| 2026-05-08 19:56 | 50.89228 | 13.40558 | 18244 ft | 368 kts | 236° |
| 2026-05-08 19:56 | 50.87750 | 13.37227 | 18819 ft | 371 kts | 236° |
| 2026-05-08 19:57 | 50.86261 | 13.33877 | 19355 ft | 374 kts | 236° |
| 2026-05-08 19:57 | 50.84757 | 13.30500 | 19894 ft | 377 kts | 236° |
| 2026-05-08 19:57 | 50.83245 | 13.27109 | 20421 ft | 379 kts | 236° |
| 2026-05-08 19:57 | 50.81715 | 13.23684 | 20947 ft | 382 kts | 236° |
| 2026-05-08 19:58 | 50.80175 | 13.20238 | 21481 ft | 385 kts | 236° |
| 2026-05-08 19:58 | 50.78585 | 13.16685 | 22016 ft | 387 kts | 236° |
| 2026-05-08 19:58 | 50.77063 | 13.13288 | 22508 ft | 390 kts | 236° |
| 2026-05-08 19:58 | 50.75487 | 13.09787 | 23000 ft | 393 kts | 236° |
| 2026-05-08 19:59 | 50.73899 | 13.06258 | 23504 ft | 395 kts | 236° |
| 2026-05-08 19:59 | 50.72303 | 13.02705 | 23937 ft | 398 kts | 236° |
| 2026-05-08 19:59 | 50.70696 | 12.99123 | 24340 ft | 400 kts | 236° |
| 2026-05-08 19:59 | 50.69083 | 12.95538 | 24732 ft | 402 kts | 236° |
| 2026-05-08 20:00 | 50.67455 | 12.91939 | 25135 ft | 405 kts | 235° |
| 2026-05-08 20:00 | 50.65747 | 12.88396 | 25525 ft | 407 kts | 233° |
| 2026-05-08 20:00 | 50.63945 | 12.84933 | 25910 ft | 410 kts | 231° |
| 2026-05-08 20:00 | 50.62086 | 12.81515 | 26273 ft | 412 kts | 230° |
| 2026-05-08 20:01 | 50.60207 | 12.78105 | 26663 ft | 414 kts | 230° |
| 2026-05-08 20:01 | 50.58340 | 12.74710 | 27035 ft | 416 kts | 230° |
| 2026-05-08 20:01 | 50.56430 | 12.71203 | 27413 ft | 418 kts | 231° |
| 2026-05-08 20:01 | 50.54544 | 12.67708 | 27784 ft | 420 kts | 231° |
| 2026-05-08 20:02 | 50.52653 | 12.64179 | 28145 ft | 423 kts | 231° |
| 2026-05-08 20:02 | 50.50757 | 12.60633 | 28506 ft | 425 kts | 231° |
| 2026-05-08 20:02 | 50.48853 | 12.57077 | 28851 ft | 426 kts | 231° |
| 2026-05-08 20:02 | 50.46939 | 12.53511 | 29178 ft | 428 kts | 231° |
| 2026-05-08 20:03 | 50.45011 | 12.49926 | 29498 ft | 430 kts | 231° |
| 2026-05-08 20:03 | 50.43073 | 12.46330 | 29815 ft | 432 kts | 231° |
| 2026-05-08 20:03 | 50.41129 | 12.42728 | 30091 ft | 434 kts | 231° |
| 2026-05-08 20:03 | 50.39181 | 12.39129 | 30150 ft | 428 kts | 231° |
| 2026-05-08 20:04 | 50.35364 | 12.32119 | 30154 ft | 421 kts | 230° |
| 2026-05-08 20:04 | 50.31572 | 12.25146 | 30153 ft | 420 kts | 231° |
| 2026-05-08 20:05 | 50.27778 | 12.18183 | 30161 ft | 420 kts | 230° |
| 2026-05-08 20:05 | 50.23981 | 12.11236 | 30155 ft | 420 kts | 230° |
| 2026-05-08 20:06 | 50.20180 | 12.04296 | 30155 ft | 420 kts | 230° |
| 2026-05-08 20:06 | 50.16384 | 11.97391 | 30155 ft | 420 kts | 230° |
| 2026-05-08 20:07 | 50.12581 | 11.90475 | 30149 ft | 420 kts | 230° |
| 2026-05-08 20:07 | 50.08776 | 11.83582 | 30146 ft | 420 kts | 230° |
| 2026-05-08 20:08 | 50.04964 | 11.76707 | 30129 ft | 420 kts | 230° |
| 2026-05-08 20:08 | 50.01137 | 11.69843 | 29991 ft | 421 kts | 230° |
| 2026-05-08 20:09 | 49.99220 | 11.66403 | 29690 ft | 421 kts | 230° |
| 2026-05-08 20:09 | 49.97330 | 11.63007 | 29403 ft | 422 kts | 230° |
| 2026-05-08 20:09 | 49.95414 | 11.59568 | 29130 ft | 422 kts | 230° |
| 2026-05-08 20:09 | 49.93498 | 11.56132 | 28841 ft | 420 kts | 230° |
| 2026-05-08 20:10 | 49.91584 | 11.52711 | 28563 ft | 419 kts | 230° |
| 2026-05-08 20:10 | 49.89670 | 11.49304 | 28290 ft | 417 kts | 230° |
| 2026-05-08 20:10 | 49.87771 | 11.45922 | 28020 ft | 415 kts | 230° |
| 2026-05-08 20:10 | 49.85877 | 11.42555 | 27750 ft | 414 kts | 230° |
| 2026-05-08 20:11 | 49.83991 | 11.39200 | 27475 ft | 412 kts | 230° |
| 2026-05-08 20:11 | 49.82113 | 11.35863 | 27217 ft | 410 kts | 230° |
| 2026-05-08 20:11 | 49.80239 | 11.32539 | 26952 ft | 408 kts | 230° |
| 2026-05-08 20:11 | 49.78379 | 11.29241 | 26585 ft | 407 kts | 230° |
| 2026-05-08 20:12 | 49.76526 | 11.25959 | 25943 ft | 402 kts | 230° |
| 2026-05-08 20:12 | 49.74690 | 11.22717 | 25318 ft | 399 kts | 230° |
| 2026-05-08 20:12 | 49.72865 | 11.19504 | 24709 ft | 396 kts | 230° |
| 2026-05-08 20:12 | 49.71057 | 11.16326 | 24124 ft | 393 kts | 230° |
| 2026-05-08 20:13 | 49.69260 | 11.13165 | 23498 ft | 391 kts | 230° |
| 2026-05-08 20:13 | 49.67467 | 11.10012 | 22801 ft | 389 kts | 230° |
| 2026-05-08 20:13 | 49.65683 | 11.06882 | 22118 ft | 388 kts | 230° |
| 2026-05-08 20:13 | 49.63905 | 11.03774 | 21465 ft | 386 kts | 229° |
| 2026-05-08 20:14 | 49.62110 | 11.00696 | 20823 ft | 385 kts | 229° |
| 2026-05-08 20:14 | 49.60304 | 10.97656 | 20289 ft | 381 kts | 228° |
| 2026-05-08 20:14 | 49.58526 | 10.94698 | 20124 ft | 374 kts | 228° |
| 2026-05-08 20:14 | 49.56754 | 10.91766 | 20133 ft | 373 kts | 228° |
| 2026-05-08 20:15 | 49.55015 | 10.88810 | 20136 ft | 373 kts | 233° |
| 2026-05-08 20:15 | 49.53689 | 10.85455 | 20138 ft | 372 kts | 242° |
| 2026-05-08 20:15 | 49.52484 | 10.81929 | 20136 ft | 372 kts | 243° |
| 2026-05-08 20:15 | 49.51273 | 10.78358 | 20137 ft | 372 kts | 243° |
| 2026-05-08 20:16 | 49.50095 | 10.74868 | 20139 ft | 372 kts | 243° |
| 2026-05-08 20:16 | 49.48869 | 10.71361 | 20140 ft | 372 kts | 240° |
| 2026-05-08 20:16 | 49.47545 | 10.67939 | 20143 ft | 372 kts | 238° |
| 2026-05-08 20:16 | 49.46163 | 10.64577 | 20145 ft | 372 kts | 237° |
| 2026-05-08 20:17 | 49.44755 | 10.61247 | 20146 ft | 372 kts | 237° |
| 2026-05-08 20:17 | 49.43338 | 10.57912 | 20145 ft | 372 kts | 237° |
| 2026-05-08 20:17 | 49.41930 | 10.54574 | 20136 ft | 372 kts | 237° |
| 2026-05-08 20:17 | 49.40538 | 10.51236 | 20137 ft | 372 kts | 238° |
| 2026-05-08 20:18 | 49.39145 | 10.47873 | 20138 ft | 372 kts | 238° |
| 2026-05-08 20:18 | 49.37765 | 10.44520 | 20138 ft | 372 kts | 238° |
| 2026-05-08 20:18 | 49.36384 | 10.41165 | 20070 ft | 372 kts | 238° |
| 2026-05-08 20:18 | 49.35004 | 10.37820 | 19819 ft | 371 kts | 238° |
| 2026-05-08 20:19 | 49.33624 | 10.34479 | 19562 ft | 369 kts | 238° |
| 2026-05-08 20:19 | 49.32254 | 10.31162 | 19320 ft | 368 kts | 238° |
| 2026-05-08 20:19 | 49.30884 | 10.27845 | 19083 ft | 367 kts | 238° |
| 2026-05-08 20:19 | 49.29523 | 10.24553 | 18843 ft | 366 kts | 238° |
| 2026-05-08 20:20 | 49.28161 | 10.21268 | 18597 ft | 364 kts | 238° |
| 2026-05-08 20:20 | 49.26803 | 10.18005 | 18363 ft | 363 kts | 238° |
| 2026-05-08 20:20 | 49.25450 | 10.14754 | 18078 ft | 361 kts | 238° |
| 2026-05-08 20:20 | 49.24102 | 10.11520 | 17807 ft | 360 kts | 237° |
| 2026-05-08 20:21 | 49.22756 | 10.08295 | 17539 ft | 359 kts | 237° |
| 2026-05-08 20:21 | 49.21415 | 10.05090 | 17276 ft | 358 kts | 237° |
| 2026-05-08 20:21 | 49.20077 | 10.01889 | 17009 ft | 356 kts | 237° |
| 2026-05-08 20:21 | 49.18730 | 9.98670 | 16744 ft | 355 kts | 237° |
| 2026-05-08 20:22 | 49.17400 | 9.95492 | 16484 ft | 354 kts | 237° |
| 2026-05-08 20:22 | 49.16068 | 9.92325 | 16225 ft | 353 kts | 237° |
| 2026-05-08 20:22 | 49.14744 | 9.89170 | 15963 ft | 352 kts | 237° |
| 2026-05-08 20:22 | 49.13867 | 9.87082 | 15800 ft | 352 kts | 237° |
| 2026-05-08 20:23 | 49.12119 | 9.82932 | 15474 ft | 350 kts | 237° |
| 2026-05-08 20:23 | 49.10801 | 9.79809 | 15217 ft | 349 kts | 237° |
| 2026-05-08 20:23 | 49.09483 | 9.76684 | 14970 ft | 354 kts | 237° |
| 2026-05-08 20:23 | 49.08138 | 9.73504 | 14735 ft | 357 kts | 237° |
| 2026-05-08 20:24 | 49.06787 | 9.70323 | 14490 ft | 357 kts | 237° |
| 2026-05-08 20:24 | 49.05437 | 9.67149 | 14240 ft | 356 kts | 237° |
| 2026-05-08 20:24 | 49.04091 | 9.63983 | 14004 ft | 355 kts | 237° |
| 2026-05-08 20:24 | 49.03186 | 9.61856 | 13843 ft | 355 kts | 237° |
| 2026-05-08 20:25 | 49.01844 | 9.58703 | 13568 ft | 353 kts | 237° |
| 2026-05-08 20:25 | 49.00526 | 9.55611 | 13303 ft | 351 kts | 237° |
| 2026-05-08 20:25 | 48.99198 | 9.52497 | 13036 ft | 350 kts | 237° |
| 2026-05-08 20:25 | 48.97878 | 9.49403 | 12768 ft | 348 kts | 237° |
| 2026-05-08 20:26 | 48.96544 | 9.46279 | 12497 ft | 346 kts | 237° |
| 2026-05-08 20:26 | 48.95251 | 9.43255 | 12257 ft | 344 kts | 237° |
| 2026-05-08 20:26 | 48.93945 | 9.40208 | 11996 ft | 343 kts | 237° |
| 2026-05-08 20:26 | 48.92644 | 9.37184 | 11731 ft | 341 kts | 237° |
| 2026-05-08 20:27 | 48.91283 | 9.34242 | 11470 ft | 340 kts | 231° |
| 2026-05-08 20:27 | 48.89661 | 9.31649 | 11224 ft | 339 kts | 225° |
| 2026-05-08 20:27 | 48.87950 | 9.29180 | 10988 ft | 338 kts | 225° |
| 2026-05-08 20:27 | 48.86256 | 9.26732 | 10737 ft | 337 kts | 225° |
| 2026-05-08 20:28 | 48.84564 | 9.24281 | 10501 ft | 335 kts | 225° |
| 2026-05-08 20:28 | 48.82895 | 9.21869 | 10253 ft | 325 kts | 225° |
| 2026-05-08 20:28 | 48.81275 | 9.19524 | 10206 ft | 319 kts | 225° |
| 2026-05-08 20:28 | 48.79695 | 9.17236 | 10206 ft | 306 kts | 225° |
| 2026-05-08 20:29 | 48.78234 | 9.15083 | 10203 ft | 279 kts | 229° |
| 2026-05-08 20:29 | 48.77052 | 9.12833 | 10195 ft | 270 kts | 237° |
| 2026-05-08 20:29 | 48.76121 | 9.10366 | 9995 ft | 268 kts | 245° |
| 2026-05-08 20:29 | 48.75456 | 9.07740 | 9591 ft | 267 kts | 253° |
| 2026-05-08 20:30 | 48.74953 | 9.05051 | 8964 ft | 265 kts | 253° |
| 2026-05-08 20:30 | 48.74446 | 9.02372 | 8319 ft | 264 kts | 253° |
| 2026-05-08 20:30 | 48.73935 | 8.99712 | 7679 ft | 262 kts | 252° |
| 2026-05-08 20:30 | 48.73429 | 8.97071 | 7178 ft | 262 kts | 252° |
| 2026-05-08 20:31 | 48.72913 | 8.94387 | 6679 ft | 268 kts | 252° |
| 2026-05-08 20:31 | 48.72323 | 8.91718 | 6160 ft | 267 kts | 240° |
| 2026-05-08 20:31 | 48.71130 | 8.89646 | 5668 ft | 261 kts | 211° |
| 2026-05-08 20:31 | 48.69443 | 8.88729 | 5164 ft | 260 kts | 182° |
| 2026-05-08 20:32 | 48.67654 | 8.89039 | 4654 ft | 260 kts | 165° |
| 2026-05-08 20:32 | 48.65901 | 8.89728 | 4163 ft | 261 kts | 157° |
| 2026-05-08 20:32 | 48.64465 | 8.91257 | 4020 ft | 252 kts | 127° |
| 2026-05-08 20:32 | 48.63711 | 8.93627 | 4023 ft | 253 kts | 107° |
| 2026-05-08 20:33 | 48.63440 | 8.96241 | 4023 ft | 254 kts | 83° |
| 2026-05-08 20:33 | 48.64142 | 8.98669 | 4028 ft | 256 kts | 55° |
| 2026-05-08 20:33 | 48.65059 | 9.00884 | 3872 ft | 242 kts | 72° |
| 2026-05-08 20:33 | 48.65444 | 9.03322 | 3591 ft | 233 kts | 78° |
| 2026-05-08 20:34 | 48.65831 | 9.05622 | 3307 ft | 220 kts | 75° |
| 2026-05-08 20:34 | 48.66241 | 9.07803 | 3024 ft | 211 kts | 74° |
| 2026-05-08 20:34 | 48.66996 | 9.11746 | 2493 ft | 177 kts | 73° |
| 2026-05-08 20:35 | 48.67317 | 9.13427 | 2280 ft | 157 kts | 72° |
| 2026-05-08 20:35 | 48.67603 | 9.14932 | 2070 ft | 144 kts | 72° |
| 2026-05-08 20:35 | 48.67876 | 9.16361 | 1865 ft | 138 kts | 73° |
| 2026-05-08 20:35 | 48.68142 | 9.17753 | 1691 ft | 137 kts | 73° |
| 2026-05-08 20:36 | 48.68407 | 9.19143 | 1485 ft | 137 kts | 73° |
| 2026-05-08 20:36 | 48.68673 | 9.20531 | 1309 ft | 137 kts | 72° |
| 2026-05-08 20:36 | 48.68930 | 9.21783 | 1249 ft | 97 kts | 75° |
| 2026-05-08 20:36 | 48.69022 | 9.22326 | 1232 ft | 9 kts | 79° |
| 2026-05-08 20:37 | 48.69034 | 9.22418 | 1229 ft | 15 kts | 78° |
| 2026-05-08 20:37 | 48.69110 | 9.22537 | 1226 ft | 18 kts | 353° |
| 2026-05-08 20:37 | 48.69200 | 9.22502 | 1232 ft | 0 kts | 343° |
| 2026-05-08 20:38 | 48.69211 | 9.22497 | 1233 ft | 4 kts | 344° |
| 2026-05-08 20:38 | 48.69238 | 9.22485 | 1242 ft | 6 kts | 344° |
| 2026-05-08 20:38 | 48.69281 | 9.22445 | 1241 ft | 6 kts | 306° |
| 2026-05-08 20:38 | 48.69280 | 9.22366 | 1247 ft | 16 kts | 258° |
| 2026-05-08 20:39 | 48.69250 | 9.22211 | 1250 ft | 13 kts | 253° |
| 2026-05-08 20:39 | 48.69231 | 9.22101 | 1251 ft | 9 kts | 254° |
| 2026-05-08 20:39 | 48.69208 | 9.21980 | 1251 ft | 16 kts | 253° |
| 2026-05-08 20:39 | 48.69175 | 9.21809 | 1256 ft | 17 kts | 254° |
| 2026-05-08 20:40 | 48.69155 | 9.21708 | 1254 ft | 7 kts | 254° |
| 2026-05-08 20:40 | 48.69126 | 9.21555 | 1261 ft | 23 kts | 253° |
| 2026-05-08 20:40 | 48.69093 | 9.21383 | 1266 ft | 15 kts | 253° |
| 2026-05-08 20:40 | 48.69063 | 9.21221 | 1267 ft | 18 kts | 253° |
| 2026-05-08 20:41 | 48.69027 | 9.21030 | 1273 ft | 20 kts | 253° |
| 2026-05-08 20:41 | 48.68985 | 9.20809 | 1276 ft | 23 kts | 254° |
| 2026-05-08 20:41 | 48.68965 | 9.20706 | 1278 ft | 1 kts | 254° |
| 2026-05-08 20:41 | 48.68951 | 9.20632 | 1279 ft | 14 kts | 254° |
| 2026-05-08 20:42 | 48.68921 | 9.20476 | 1284 ft | 16 kts | 253° |
| 2026-05-08 20:42 | 48.68886 | 9.20300 | 1288 ft | 19 kts | 253° |
| 2026-05-08 20:42 | 48.68850 | 9.20101 | 1293 ft | 20 kts | 253° |
| 2026-05-08 20:42 | 48.68817 | 9.19926 | 1297 ft | 11 kts | 282° |
| 2026-05-08 20:43 | 48.68878 | 9.19868 | 1302 ft | 10 kts | 314° |
| 2026-05-08 20:43 | 48.68879 | 9.19767 | 1306 ft | 10 kts | 253° |
| 2026-05-08 20:43 | 48.68858 | 9.19654 | 1309 ft | 12 kts | 254° |
| 2026-05-08 20:43 | 48.68832 | 9.19520 | 1311 ft | 14 kts | 254° |
| 2026-05-08 20:44 | 48.68808 | 9.19392 | 1313 ft | 11 kts | 253° |
| 2026-05-08 20:44 | 48.68799 | 9.19346 | 1314 ft | 2 kts | 255° |
| 2026-05-08 20:44 | 48.68801 | 9.19327 | 1314 ft | 2 kts | 289° |
| 2026-05-08 20:44 | 48.68813 | 9.19314 | 1315 ft | 4 kts | 330° |
| 2026-05-08 20:45 | 48.68833 | 9.19304 | 1315 ft | 2 kts | 343° |
| 2026-05-08 20:45 | 48.68848 | 9.19298 | 1315 ft | 3 kts | 344° |
| 2026-05-08 20:45 | 48.68868 | 9.19289 | 1315 ft | 1 kts | 344° |
| 2026-05-08 20:45 | 48.68870 | 9.19288 | 1315 ft | 0 kts | 344° |